Aeroporto :
LOGIN :

Iscrizione | Disclaimer

   EN    FR    IT 

 










Sommario :    VFR   VFR Marginale   IFR   IFR Intensivo   IFR Molto Intensivo
Visibilità : 
Base nubi : 
>= 8 km
>= 3000ft
5 / 8 km
1000 / 3000 ft
1500m / 5 km
500 / 1000 ft
800 / 1500m
200 / 500 ft
< 800m
< 200 ft
Simboli :   Temporali  Nebbia  Neve Forte  Precipitazioni Forti  Vento > 20 kt
SIGMETs :   Varie  Temporali  Ghiacco  Turbolenza  Onda orograficha  Ceneri Vulcaniche







- Altitudine del aeroporto : 93 ft
- Codice IATA : XRY


LEJR - Jerez

ULTIMO METAR :
  • 181800Z 12012KT 080V160 9999 -RA BKN032 BKN045 13/12 Q0999

METARs OBSOLETI :
  • 181730Z 13013KT 100V160 9999 FEW025 BKN045 13/12 Q0999
  • 181700Z 13011KT 100V160 9999 FEW025 BKN045 13/12 Q1000
  • 181630Z 14011KT 100V170 9999 FEW035 BKN055 14/12 Q1000 RERA
  • 181600Z 15011KT 110V180 9999 -RA FEW044 SCT050 14/12 Q1000
  • 181530Z 15011KT 110V190 9999 FEW027 SCT050 15/12 Q1000
  • 181500Z 14012KT 100V170 9999 FEW027 SCT050 15/13 Q1000

TAF TAF LEJR
Valido dal 18 a 18 ore il 19 a 18 ore UTC


181700Z 1818/1918 14010KT 9999 FEW030 SCT050 TX18/1915Z TN09/1906Z
BECMG 1820/1822 25008KT
TEMPO 1818/1824 4000 SHRA SCT025TCU BKN030
Nessun NOTAM noto per questo aeroporto.
2 SIGMETs conosciuti per la FIR Madrid (LECM) :
 
Temporali affogati
LECM SIGMET 9 VALID 181800/182000 LEVA
LECM MADRID FIR/UIR EMBD TS OBS AT 1745Z WI N3751 W00327 - N3549 W00456 - N3546 W002 - N3754 W00132 - N3751 W00327 TOP FL380 MOV NE NC=
Temporali affogati
LECM SIGMET 8 VALID 181600/181800 LEVA
LECM MADRID FIR/UIR EMBD TS OBS AT 1542Z WI N3551 W00552 - N3747 W00501 - N3758 W00136 - N3552 W00201 - N3551 W00552 TOP FL380 MOV NE NC=



MetMap, La meteo Aeronautica in un colpo d'occhio ! - Copyright ORBIFLY Dicembre 2007 - Disclaimer

ORBIFLY MET'MAP TEAM :

Programmazione e sviluppo : Alexandra Zaïnal
Concezione e sviluppo : Baudouin d'Aumeries
Co-Programmazione e sviluppo : Marc-Olivier Méhu
Supporto tecnico e logistico : Manuel Goepfert
Aiuto per la traduzione : Arnaldo La Scala

Contatto : metmap@orbifly.com




FONTI E CREDITI :

   NOAA